sensor_id;sensor_type;location;lat;lon;timestamp;pressure;altitude;pressure_sealevel;temperature;humidity
6427;BME280;3246;42.664;23.308;2024-03-22T00:00:34;120715.88;;;-142.62;39.47
6427;BME280;3246;42.664;23.308;2024-03-22T00:03:02;120715.88;;;-142.62;39.46
6427;BME280;3246;42.664;23.308;2024-03-22T00:05:28;120715.88;;;-142.62;39.12
6427;BME280;3246;42.664;23.308;2024-03-22T00:07:55;120715.88;;;-142.62;40.11
6427;BME280;3246;42.664;23.308;2024-03-22T00:10:21;120715.88;;;-142.62;40.08
6427;BME280;3246;42.664;23.308;2024-03-22T00:12:49;120715.88;;;-142.62;40.62
6427;BME280;3246;42.664;23.308;2024-03-22T00:15:15;120715.88;;;-142.62;40.17
6427;BME280;3246;42.664;23.308;2024-03-22T00:17:42;120715.88;;;-142.62;40.39
6427;BME280;3246;42.664;23.308;2024-03-22T00:20:10;120715.88;;;-142.62;40.96
6427;BME280;3246;42.664;23.308;2024-03-22T00:22:37;120715.88;;;-142.62;40.46
6427;BME280;3246;42.664;23.308;2024-03-22T00:25:03;120715.88;;;-142.62;41.43
6427;BME280;3246;42.664;23.308;2024-03-22T00:27:31;120715.88;;;-142.62;41.43
6427;BME280;3246;42.664;23.308;2024-03-22T00:29:57;120715.88;;;-142.62;41.96
6427;BME280;3246;42.664;23.308;2024-03-22T00:32:24;120715.88;;;-142.62;41.91
6427;BME280;3246;42.664;23.308;2024-03-22T00:34:50;120715.88;;;-142.62;42.09
6427;BME280;3246;42.664;23.308;2024-03-22T00:37:18;120715.88;;;-142.62;42.38
6427;BME280;3246;42.664;23.308;2024-03-22T00:39:44;120715.88;;;-142.62;42.94
6427;BME280;3246;42.664;23.308;2024-03-22T00:42:11;120715.88;;;-142.62;43.18
6427;BME280;3246;42.664;23.308;2024-03-22T00:44:36;120715.88;;;-142.62;42.90
6427;BME280;3246;42.664;23.308;2024-03-22T00:47:03;120715.88;;;-142.62;43.05
6427;BME280;3246;42.664;23.308;2024-03-22T00:49:32;120715.88;;;-142.62;43.06
6427;BME280;3246;42.664;23.308;2024-03-22T00:51:59;120715.88;;;-142.62;43.57
6427;BME280;3246;42.664;23.308;2024-03-22T00:54:26;120715.88;;;-142.62;43.43
6427;BME280;3246;42.664;23.308;2024-03-22T00:56:52;120715.88;;;-142.62;43.73
6427;BME280;3246;42.664;23.308;2024-03-22T00:59:18;120715.88;;;-142.62;43.02
6427;BME280;3246;42.664;23.308;2024-03-22T01:01:45;120715.88;;;-142.62;43.37
6427;BME280;3246;42.664;23.308;2024-03-22T01:04:11;120715.88;;;-142.62;43.93
6427;BME280;3246;42.664;23.308;2024-03-22T01:06:38;120715.88;;;-142.62;43.10
6427;BME280;3246;42.664;23.308;2024-03-22T01:09:05;120715.88;;;-142.62;43.48
6427;BME280;3246;42.664;23.308;2024-03-22T01:11:34;120715.88;;;-142.62;42.95
6427;BME280;3246;42.664;23.308;2024-03-22T01:14:00;120715.88;;;-142.62;43.14
6427;BME280;3246;42.664;23.308;2024-03-22T01:16:26;120715.88;;;-142.62;43.08
6427;BME280;3246;42.664;23.308;2024-03-22T01:18:52;120715.88;;;-142.62;43.00
6427;BME280;3246;42.664;23.308;2024-03-22T01:21:19;120715.88;;;-142.62;42.89
6427;BME280;3246;42.664;23.308;2024-03-22T01:23:50;120715.88;;;-142.62;43.08
6427;BME280;3246;42.664;23.308;2024-03-22T01:26:17;120715.88;;;-142.62;43.41
6427;BME280;3246;42.664;23.308;2024-03-22T01:28:44;120715.88;;;-142.62;42.93
6427;BME280;3246;42.664;23.308;2024-03-22T01:31:11;120715.88;;;-142.62;42.82
6427;BME280;3246;42.664;23.308;2024-03-22T01:33:37;120715.88;;;-142.62;43.26
6427;BME280;3246;42.664;23.308;2024-03-22T01:36:04;120715.88;;;-142.62;44.17
6427;BME280;3246;42.664;23.308;2024-03-22T01:38:30;120715.88;;;-142.62;43.21
6427;BME280;3246;42.664;23.308;2024-03-22T01:40:57;120715.88;;;-142.62;42.99
6427;BME280;3246;42.664;23.308;2024-03-22T01:43:23;120715.88;;;-142.62;42.86
6427;BME280;3246;42.664;23.308;2024-03-22T01:45:51;120715.88;;;-142.62;43.86
6427;BME280;3246;42.664;23.308;2024-03-22T01:48:17;120715.88;;;-142.62;43.28
6427;BME280;3246;42.664;23.308;2024-03-22T01:50:44;120715.88;;;-142.62;43.90
6427;BME280;3246;42.664;23.308;2024-03-22T01:53:10;120715.88;;;-142.62;43.88
6427;BME280;3246;42.664;23.308;2024-03-22T01:55:37;120715.88;;;-142.62;44.09
6427;BME280;3246;42.664;23.308;2024-03-22T01:58:03;120715.88;;;-142.62;43.51
6427;BME280;3246;42.664;23.308;2024-03-22T02:00:31;120715.88;;;-142.62;43.69
6427;BME280;3246;42.664;23.308;2024-03-22T02:02:58;120715.88;;;-142.62;43.80
6427;BME280;3246;42.664;23.308;2024-03-22T02:05:25;120715.88;;;-142.62;43.04
6427;BME280;3246;42.664;23.308;2024-03-22T02:07:50;120715.88;;;-142.62;43.05
6427;BME280;3246;42.664;23.308;2024-03-22T02:10:18;120715.88;;;-142.62;43.28
6427;BME280;3246;42.664;23.308;2024-03-22T02:12:44;120715.88;;;-142.62;43.82
6427;BME280;3246;42.664;23.308;2024-03-22T02:15:10;120715.88;;;-142.62;43.64
6427;BME280;3246;42.664;23.308;2024-03-22T02:17:36;120715.88;;;-142.62;44.20
6427;BME280;3246;42.664;23.308;2024-03-22T02:20:06;120715.88;;;-142.62;43.30
6427;BME280;3246;42.664;23.308;2024-03-22T02:22:32;120715.88;;;-142.62;43.78
6427;BME280;3246;42.664;23.308;2024-03-22T02:25:01;120715.88;;;-142.62;44.52
6427;BME280;3246;42.664;23.308;2024-03-22T02:27:26;120715.88;;;-142.62;44.89
6427;BME280;3246;42.664;23.308;2024-03-22T02:29:55;120715.88;;;-142.62;44.98
6427;BME280;3246;42.664;23.308;2024-03-22T02:32:21;120715.88;;;-142.62;45.82
6427;BME280;3246;42.664;23.308;2024-03-22T02:34:47;120715.88;;;-142.62;45.11
6427;BME280;3246;42.664;23.308;2024-03-22T02:37:13;120715.88;;;-142.62;46.07
6427;BME280;3246;42.664;23.308;2024-03-22T02:39:40;120715.88;;;-142.62;45.38
6427;BME280;3246;42.664;23.308;2024-03-22T02:42:07;120715.88;;;-142.62;45.96
6427;BME280;3246;42.664;23.308;2024-03-22T02:44:34;120715.88;;;-142.62;46.02
6427;BME280;3246;42.664;23.308;2024-03-22T02:47:04;120715.88;;;-142.62;46.15
6427;BME280;3246;42.664;23.308;2024-03-22T02:49:30;120715.88;;;-142.62;46.98
6427;BME280;3246;42.664;23.308;2024-03-22T02:51:56;120715.88;;;-142.62;46.36
6427;BME280;3246;42.664;23.308;2024-03-22T02:54:23;120715.88;;;-142.62;46.17
6427;BME280;3246;42.664;23.308;2024-03-22T02:56:49;120715.88;;;-142.62;46.76
6427;BME280;3246;42.664;23.308;2024-03-22T02:59:17;120715.88;;;-142.62;46.13
6427;BME280;3246;42.664;23.308;2024-03-22T03:01:43;120715.88;;;-142.62;45.96
6427;BME280;3246;42.664;23.308;2024-03-22T03:04:09;120715.88;;;-142.62;45.69
6427;BME280;3246;42.664;23.308;2024-03-22T03:06:35;120715.88;;;-142.62;46.60
6427;BME280;3246;42.664;23.308;2024-03-22T03:09:02;120715.88;;;-142.62;46.28
6427;BME280;3246;42.664;23.308;2024-03-22T03:11:30;120715.88;;;-142.62;45.70
6427;BME280;3246;42.664;23.308;2024-03-22T03:13:56;120715.88;;;-142.62;46.20
6427;BME280;3246;42.664;23.308;2024-03-22T03:16:24;120715.88;;;-142.62;46.86
6427;BME280;3246;42.664;23.308;2024-03-22T03:18:50;120715.88;;;-142.62;47.48
6427;BME280;3246;42.664;23.308;2024-03-22T03:21:16;120715.88;;;-142.62;46.94
6427;BME280;3246;42.664;23.308;2024-03-22T03:23:43;120715.88;;;-142.62;47.75
6427;BME280;3246;42.664;23.308;2024-03-22T03:26:09;120715.88;;;-142.62;47.72
6427;BME280;3246;42.664;23.308;2024-03-22T03:28:35;120715.88;;;-142.62;48.37
6427;BME280;3246;42.664;23.308;2024-03-22T03:31:01;120715.88;;;-142.62;49.23
6427;BME280;3246;42.664;23.308;2024-03-22T03:33:30;120715.88;;;-142.62;49.14
6427;BME280;3246;42.664;23.308;2024-03-22T03:35:55;120715.88;;;-142.62;48.63
6427;BME280;3246;42.664;23.308;2024-03-22T03:38:22;120715.88;;;-142.62;49.12
6427;BME280;3246;42.664;23.308;2024-03-22T03:40:48;120715.88;;;-142.62;49.27
6427;BME280;3246;42.664;23.308;2024-03-22T03:43:15;120715.88;;;-142.62;49.73
6427;BME280;3246;42.664;23.308;2024-03-22T03:45:41;120715.88;;;-142.62;49.87
6427;BME280;3246;42.664;23.308;2024-03-22T03:48:07;120715.88;;;-142.62;50.08
6427;BME280;3246;42.664;23.308;2024-03-22T03:50:35;120715.88;;;-142.62;50.55
6427;BME280;3246;42.664;23.308;2024-03-22T03:53:01;120715.88;;;-142.62;50.08
6427;BME280;3246;42.664;23.308;2024-03-22T03:55:27;120715.88;;;-142.62;50.06
6427;BME280;3246;42.664;23.308;2024-03-22T03:57:54;120715.88;;;-142.62;50.06
6427;BME280;3246;42.664;23.308;2024-03-22T04:00:20;120715.88;;;-142.62;49.94
6427;BME280;3246;42.664;23.308;2024-03-22T04:02:48;120715.88;;;-142.62;49.29
6427;BME280;3246;42.664;23.308;2024-03-22T04:05:14;120715.88;;;-142.62;49.05
6427;BME280;3246;42.664;23.308;2024-03-22T04:07:47;120715.88;;;-142.62;49.27
6427;BME280;3246;42.664;23.308;2024-03-22T04:10:12;120715.88;;;-142.62;48.98
6427;BME280;3246;42.664;23.308;2024-03-22T04:12:39;120715.88;;;-142.62;48.82
6427;BME280;3246;42.664;23.308;2024-03-22T04:15:06;120715.88;;;-142.62;47.97
6427;BME280;3246;42.664;23.308;2024-03-22T04:17:34;120715.88;;;-142.62;47.96
6427;BME280;3246;42.664;23.308;2024-03-22T04:20:00;120715.88;;;-142.62;48.68
6427;BME280;3246;42.664;23.308;2024-03-22T04:22:28;120715.88;;;-142.62;48.46
6427;BME280;3246;42.664;23.308;2024-03-22T04:24:55;120715.88;;;-142.62;48.69
6427;BME280;3246;42.664;23.308;2024-03-22T04:27:21;120715.88;;;-142.62;48.21
6427;BME280;3246;42.664;23.308;2024-03-22T04:29:47;120715.88;;;-142.62;48.13
6427;BME280;3246;42.664;23.308;2024-03-22T04:32:14;120715.88;;;-142.62;48.41
6427;BME280;3246;42.664;23.308;2024-03-22T04:34:41;120715.88;;;-142.62;48.28
6427;BME280;3246;42.664;23.308;2024-03-22T04:37:08;120715.88;;;-142.62;48.19
6427;BME280;3246;42.664;23.308;2024-03-22T04:39:37;120715.88;;;-142.62;48.87
6427;BME280;3246;42.664;23.308;2024-03-22T04:42:06;120715.88;;;-142.62;49.11
6427;BME280;3246;42.664;23.308;2024-03-22T04:44:32;120715.88;;;-142.62;49.22
6427;BME280;3246;42.664;23.308;2024-03-22T04:46:58;120715.88;;;-142.62;48.98
6427;BME280;3246;42.664;23.308;2024-03-22T04:49:25;120715.88;;;-142.62;49.17
6427;BME280;3246;42.664;23.308;2024-03-22T04:51:51;120715.88;;;-142.62;48.87
6427;BME280;3246;42.664;23.308;2024-03-22T04:54:17;120715.88;;;-142.62;48.79
6427;BME280;3246;42.664;23.308;2024-03-22T04:56:43;120715.88;;;-142.62;48.66
6427;BME280;3246;42.664;23.308;2024-03-22T04:59:12;120715.88;;;-142.62;49.45
6427;BME280;3246;42.664;23.308;2024-03-22T05:01:38;120715.88;;;-142.62;49.73
6427;BME280;3246;42.664;23.308;2024-03-22T05:04:04;120715.88;;;-142.62;50.21
6427;BME280;3246;42.664;23.308;2024-03-22T05:06:30;120715.88;;;-142.62;50.24
6427;BME280;3246;42.664;23.308;2024-03-22T05:08:57;120715.88;;;-142.62;49.94
6427;BME280;3246;42.664;23.308;2024-03-22T05:11:23;120715.88;;;-142.62;50.40
6427;BME280;3246;42.664;23.308;2024-03-22T05:13:49;120715.88;;;-142.62;50.93
6427;BME280;3246;42.664;23.308;2024-03-22T05:16:17;120715.88;;;-142.62;50.98
6427;BME280;3246;42.664;23.308;2024-03-22T05:18:43;120715.88;;;-142.62;51.06
6427;BME280;3246;42.664;23.308;2024-03-22T05:21:09;120715.88;;;-142.62;50.86
6427;BME280;3246;42.664;23.308;2024-03-22T05:23:36;120715.88;;;-142.62;50.32
6427;BME280;3246;42.664;23.308;2024-03-22T05:26:02;120715.88;;;-142.62;50.39
6427;BME280;3246;42.664;23.308;2024-03-22T05:28:29;120715.88;;;-142.62;50.41
6427;BME280;3246;42.664;23.308;2024-03-22T05:30:56;120715.88;;;-142.62;49.97
6427;BME280;3246;42.664;23.308;2024-03-22T05:33:24;120715.88;;;-142.62;50.07
6427;BME280;3246;42.664;23.308;2024-03-22T05:35:50;120715.88;;;-142.62;49.59
6427;BME280;3246;42.664;23.308;2024-03-22T05:38:16;120715.88;;;-142.62;49.97
6427;BME280;3246;42.664;23.308;2024-03-22T05:40:42;120715.88;;;-142.62;49.92
6427;BME280;3246;42.664;23.308;2024-03-22T05:43:11;120715.88;;;-142.62;50.13
6427;BME280;3246;42.664;23.308;2024-03-22T05:45:37;120715.88;;;-142.62;50.17
6427;BME280;3246;42.664;23.308;2024-03-22T05:48:04;120715.88;;;-142.62;50.43
6427;BME280;3246;42.664;23.308;2024-03-22T05:50:32;120715.88;;;-142.62;51.63
6427;BME280;3246;42.664;23.308;2024-03-22T05:52:58;120715.88;;;-142.62;52.93
6427;BME280;3246;42.664;23.308;2024-03-22T05:55:25;120715.88;;;-142.62;52.29
6427;BME280;3246;42.664;23.308;2024-03-22T05:57:52;120715.88;;;-142.62;50.88
6427;BME280;3246;42.664;23.308;2024-03-22T06:00:19;120715.88;;;-142.62;51.21
6427;BME280;3246;42.664;23.308;2024-03-22T06:02:45;120715.88;;;-142.62;49.61
6427;BME280;3246;42.664;23.308;2024-03-22T06:05:12;120715.88;;;-142.62;49.06
6427;BME280;3246;42.664;23.308;2024-03-22T06:07:40;120715.88;;;-142.62;49.08
6427;BME280;3246;42.664;23.308;2024-03-22T06:10:09;120715.88;;;-142.62;48.59
6427;BME280;3246;42.664;23.308;2024-03-22T06:12:35;120715.88;;;-142.62;47.66
6427;BME280;3246;42.664;23.308;2024-03-22T06:15:03;120715.88;;;-142.62;47.74
6427;BME280;3246;42.664;23.308;2024-03-22T06:17:31;120715.88;;;-142.62;47.80
6427;BME280;3246;42.664;23.308;2024-03-22T06:19:58;120715.88;;;-142.62;46.98
6427;BME280;3246;42.664;23.308;2024-03-22T06:22:25;120715.88;;;-142.62;47.43
6427;BME280;3246;42.664;23.308;2024-03-22T06:24:53;120715.88;;;-142.62;47.45
6427;BME280;3246;42.664;23.308;2024-03-22T06:27:19;120715.88;;;-142.62;46.86
6427;BME280;3246;42.664;23.308;2024-03-22T06:29:45;120715.88;;;-142.62;46.37
6427;BME280;3246;42.664;23.308;2024-03-22T06:32:11;120715.88;;;-142.62;46.00
6427;BME280;3246;42.664;23.308;2024-03-22T06:34:38;120715.88;;;-142.62;45.91
6427;BME280;3246;42.664;23.308;2024-03-22T06:37:04;120715.88;;;-142.62;45.17
6427;BME280;3246;42.664;23.308;2024-03-22T06:39:31;120715.88;;;-142.62;45.44
6427;BME280;3246;42.664;23.308;2024-03-22T06:41:58;120715.88;;;-142.62;44.95
6427;BME280;3246;42.664;23.308;2024-03-22T06:44:25;120715.88;;;-142.62;44.90
6427;BME280;3246;42.664;23.308;2024-03-22T06:46:51;120715.88;;;-142.62;44.35
6427;BME280;3246;42.664;23.308;2024-03-22T06:49:17;120715.88;;;-142.62;43.84
6427;BME280;3246;42.664;23.308;2024-03-22T06:51:43;120715.88;;;-142.62;43.94
6427;BME280;3246;42.664;23.308;2024-03-22T06:54:10;120715.88;;;-142.62;44.36
6427;BME280;3246;42.664;23.308;2024-03-22T06:56:36;120715.88;;;-142.62;43.98
6427;BME280;3246;42.664;23.308;2024-03-22T06:59:04;120715.88;;;-142.62;43.08
6427;BME280;3246;42.664;23.308;2024-03-22T07:01:30;120715.88;;;-142.62;43.82
6427;BME280;3246;42.664;23.308;2024-03-22T07:03:57;120715.88;;;-142.62;43.94
6427;BME280;3246;42.664;23.308;2024-03-22T07:06:22;120715.88;;;-142.62;43.32
6427;BME280;3246;42.664;23.308;2024-03-22T07:08:49;120715.88;;;-142.62;43.01
6427;BME280;3246;42.664;23.308;2024-03-22T07:11:16;120715.88;;;-142.62;43.36
6427;BME280;3246;42.664;23.308;2024-03-22T07:13:42;120715.88;;;-142.62;43.52
6427;BME280;3246;42.664;23.308;2024-03-22T07:16:10;120715.88;;;-142.62;43.01
6427;BME280;3246;42.664;23.308;2024-03-22T07:18:37;120715.88;;;-142.62;43.53
6427;BME280;3246;42.664;23.308;2024-03-22T07:21:03;120715.88;;;-142.62;42.90
6427;BME280;3246;42.664;23.308;2024-03-22T07:23:30;120715.88;;;-142.62;43.30
6427;BME280;3246;42.664;23.308;2024-03-22T07:25:55;120715.88;;;-142.62;42.66
6427;BME280;3246;42.664;23.308;2024-03-22T07:28:22;120715.88;;;-142.62;42.96
6427;BME280;3246;42.664;23.308;2024-03-22T07:30:48;120715.88;;;-142.62;42.83
6427;BME280;3246;42.664;23.308;2024-03-22T07:33:16;120715.88;;;-142.62;42.82
6427;BME280;3246;42.664;23.308;2024-03-22T07:35:43;120715.88;;;-142.62;43.17
6427;BME280;3246;42.664;23.308;2024-03-22T07:38:10;120715.88;;;-142.62;42.78
6427;BME280;3246;42.664;23.308;2024-03-22T07:40:36;120715.88;;;-142.62;43.71
6427;BME280;3246;42.664;23.308;2024-03-22T07:43:03;120715.88;;;-142.62;42.65
6427;BME280;3246;42.664;23.308;2024-03-22T07:45:31;120715.88;;;-142.62;42.22
6427;BME280;3246;42.664;23.308;2024-03-22T07:47:58;120715.88;;;-142.62;42.07
6427;BME280;3246;42.664;23.308;2024-03-22T07:50:25;120715.88;;;-142.62;42.02
6427;BME280;3246;42.664;23.308;2024-03-22T07:52:52;120715.88;;;-142.62;41.18
6427;BME280;3246;42.664;23.308;2024-03-22T07:55:18;120715.88;;;-142.62;41.24
6427;BME280;3246;42.664;23.308;2024-03-22T07:57:45;120715.88;;;-142.62;41.21
6427;BME280;3246;42.664;23.308;2024-03-22T08:00:12;120715.88;;;-142.62;41.45
6427;BME280;3246;42.664;23.308;2024-03-22T08:02:39;120715.88;;;-142.62;41.18
6427;BME280;3246;42.664;23.308;2024-03-22T08:05:05;120715.88;;;-142.62;41.03
6427;BME280;3246;42.664;23.308;2024-03-22T08:07:34;120715.88;;;-142.62;40.83
6427;BME280;3246;42.664;23.308;2024-03-22T08:09:59;120715.88;;;-142.62;40.60
6427;BME280;3246;42.664;23.308;2024-03-22T08:12:27;120715.88;;;-142.62;40.66
6427;BME280;3246;42.664;23.308;2024-03-22T08:14:53;120715.88;;;-142.62;40.19
6427;BME280;3246;42.664;23.308;2024-03-22T08:17:21;120715.88;;;-142.62;40.28
6427;BME280;3246;42.664;23.308;2024-03-22T08:19:46;120715.88;;;-142.62;39.84
6427;BME280;3246;42.664;23.308;2024-03-22T08:22:13;120715.88;;;-142.62;40.14
6427;BME280;3246;42.664;23.308;2024-03-22T08:24:40;120715.88;;;-142.62;39.55
6427;BME280;3246;42.664;23.308;2024-03-22T08:27:07;120715.88;;;-142.62;39.31
6427;BME280;3246;42.664;23.308;2024-03-22T08:29:33;120715.88;;;-142.62;39.16
6427;BME280;3246;42.664;23.308;2024-03-22T08:32:00;120715.88;;;-142.62;39.19
6427;BME280;3246;42.664;23.308;2024-03-22T08:34:29;120715.88;;;-142.62;39.70
6427;BME280;3246;42.664;23.308;2024-03-22T08:36:57;120715.88;;;-142.62;39.12
6427;BME280;3246;42.664;23.308;2024-03-22T08:39:23;120715.88;;;-142.62;39.66
6427;BME280;3246;42.664;23.308;2024-03-22T08:41:52;120715.88;;;-142.62;39.60
6427;BME280;3246;42.664;23.308;2024-03-22T08:44:18;120715.88;;;-142.62;38.82
6427;BME280;3246;42.664;23.308;2024-03-22T08:46:45;120715.88;;;-142.62;38.75
6427;BME280;3246;42.664;23.308;2024-03-22T08:49:11;120715.88;;;-142.62;38.33
6427;BME280;3246;42.664;23.308;2024-03-22T08:51:39;120715.88;;;-142.62;38.40
6427;BME280;3246;42.664;23.308;2024-03-22T08:54:05;120715.88;;;-142.62;38.35
6427;BME280;3246;42.664;23.308;2024-03-22T08:56:32;120715.88;;;-142.62;38.11
6427;BME280;3246;42.664;23.308;2024-03-22T08:58:59;120715.88;;;-142.62;38.57
6427;BME280;3246;42.664;23.308;2024-03-22T09:01:26;120715.88;;;-142.62;37.81
6427;BME280;3246;42.664;23.308;2024-03-22T09:03:52;120715.88;;;-142.62;37.70
6427;BME280;3246;42.664;23.308;2024-03-22T09:06:19;120715.88;;;-142.62;38.24
6427;BME280;3246;42.664;23.308;2024-03-22T09:08:45;120715.88;;;-142.62;37.36
6427;BME280;3246;42.664;23.308;2024-03-22T09:11:12;120715.88;;;-142.62;37.14
6427;BME280;3246;42.664;23.308;2024-03-22T09:13:38;120715.88;;;-142.62;37.10
6427;BME280;3246;42.664;23.308;2024-03-22T09:16:06;120715.88;;;-142.62;37.84
6427;BME280;3246;42.664;23.308;2024-03-22T09:18:32;120715.88;;;-142.62;37.43
6427;BME280;3246;42.664;23.308;2024-03-22T09:20:59;120715.88;;;-142.62;37.40
6427;BME280;3246;42.664;23.308;2024-03-22T09:23:25;120715.88;;;-142.62;37.79
6427;BME280;3246;42.664;23.308;2024-03-22T09:25:51;120715.88;;;-142.62;37.44
6427;BME280;3246;42.664;23.308;2024-03-22T09:28:17;120715.88;;;-142.62;37.22
6427;BME280;3246;42.664;23.308;2024-03-22T09:30:44;120715.88;;;-142.62;37.76
6427;BME280;3246;42.664;23.308;2024-03-22T09:33:11;120715.88;;;-142.62;37.19
6427;BME280;3246;42.664;23.308;2024-03-22T09:35:38;120715.88;;;-142.62;36.74
6427;BME280;3246;42.664;23.308;2024-03-22T09:38:04;120715.88;;;-142.62;37.11
6427;BME280;3246;42.664;23.308;2024-03-22T09:40:31;120715.88;;;-142.62;37.30
6427;BME280;3246;42.664;23.308;2024-03-22T09:43:02;120715.88;;;-142.62;36.79
6427;BME280;3246;42.664;23.308;2024-03-22T09:45:29;120715.88;;;-142.62;36.26
6427;BME280;3246;42.664;23.308;2024-03-22T09:47:57;120715.88;;;-142.62;35.70
6427;BME280;3246;42.664;23.308;2024-03-22T09:50:29;120715.88;;;-142.62;36.29
6427;BME280;3246;42.664;23.308;2024-03-22T09:52:56;120715.88;;;-142.62;36.49
6427;BME280;3246;42.664;23.308;2024-03-22T09:55:24;120715.88;;;-142.62;36.88
6427;BME280;3246;42.664;23.308;2024-03-22T09:57:51;120715.88;;;-142.62;35.97
6427;BME280;3246;42.664;23.308;2024-03-22T10:00:19;120715.88;;;-142.62;35.70
6427;BME280;3246;42.664;23.308;2024-03-22T10:02:47;120715.88;;;-142.62;35.54
6427;BME280;3246;42.664;23.308;2024-03-22T10:05:15;120715.88;;;-142.62;35.74
6427;BME280;3246;42.664;23.308;2024-03-22T10:07:44;120715.88;;;-142.62;35.67
6427;BME280;3246;42.664;23.308;2024-03-22T10:10:11;120715.88;;;-142.62;35.54
6427;BME280;3246;42.664;23.308;2024-03-22T10:12:37;120715.88;;;-142.62;35.77
6427;BME280;3246;42.664;23.308;2024-03-22T10:15:05;120715.88;;;-142.62;36.09
6427;BME280;3246;42.664;23.308;2024-03-22T10:17:34;120715.88;;;-142.62;35.94
6427;BME280;3246;42.664;23.308;2024-03-22T10:20:01;120715.88;;;-142.62;36.46
6427;BME280;3246;42.664;23.308;2024-03-22T10:22:28;120715.88;;;-142.62;35.97
6427;BME280;3246;42.664;23.308;2024-03-22T10:24:56;120715.88;;;-142.62;35.92
6427;BME280;3246;42.664;23.308;2024-03-22T10:27:29;120715.88;;;-142.62;35.45
6427;BME280;3246;42.664;23.308;2024-03-22T10:29:56;120715.88;;;-142.62;34.87
6427;BME280;3246;42.664;23.308;2024-03-22T10:32:23;120715.88;;;-142.62;34.66
6427;BME280;3246;42.664;23.308;2024-03-22T10:34:50;120715.88;;;-142.62;35.18
6427;BME280;3246;42.664;23.308;2024-03-22T10:37:16;120715.88;;;-142.62;35.09
6427;BME280;3246;42.664;23.308;2024-03-22T10:39:43;120715.88;;;-142.62;34.02
6427;BME280;3246;42.664;23.308;2024-03-22T10:42:13;120715.88;;;-142.62;34.58
6427;BME280;3246;42.664;23.308;2024-03-22T10:44:41;120715.88;;;-142.62;34.86
6427;BME280;3246;42.664;23.308;2024-03-22T10:47:09;120715.88;;;-142.62;34.57
6427;BME280;3246;42.664;23.308;2024-03-22T10:49:37;120715.88;;;-142.62;34.87
6427;BME280;3246;42.664;23.308;2024-03-22T10:52:05;120715.88;;;-142.62;34.55
6427;BME280;3246;42.664;23.308;2024-03-22T10:54:39;120715.88;;;-142.62;34.63
6427;BME280;3246;42.664;23.308;2024-03-22T10:57:07;120715.88;;;-142.62;34.23
6427;BME280;3246;42.664;23.308;2024-03-22T10:59:40;120715.88;;;-142.62;34.17
6427;BME280;3246;42.664;23.308;2024-03-22T11:02:06;120715.88;;;-142.62;33.81
6427;BME280;3246;42.664;23.308;2024-03-22T11:04:36;120715.88;;;-142.62;33.30
6427;BME280;3246;42.664;23.308;2024-03-22T11:07:02;120715.88;;;-142.62;32.93
6427;BME280;3246;42.664;23.308;2024-03-22T11:09:29;120715.88;;;-142.62;32.90
6427;BME280;3246;42.664;23.308;2024-03-22T11:11:56;120715.88;;;-142.62;32.75
6427;BME280;3246;42.664;23.308;2024-03-22T11:14:24;120715.88;;;-142.62;32.59
6427;BME280;3246;42.664;23.308;2024-03-22T11:16:51;120715.88;;;-142.62;33.01
6427;BME280;3246;42.664;23.308;2024-03-22T11:19:19;120715.88;;;-142.62;33.56
6427;BME280;3246;42.664;23.308;2024-03-22T11:21:45;120715.88;;;-142.62;32.66
6427;BME280;3246;42.664;23.308;2024-03-22T11:24:12;120715.88;;;-142.62;32.70
6427;BME280;3246;42.664;23.308;2024-03-22T11:26:38;120715.88;;;-142.62;32.68
6427;BME280;3246;42.664;23.308;2024-03-22T11:29:05;120715.88;;;-142.62;32.82
6427;BME280;3246;42.664;23.308;2024-03-22T11:31:31;120715.88;;;-142.62;33.25
6427;BME280;3246;42.664;23.308;2024-03-22T11:33:59;120715.88;;;-142.62;33.12
6427;BME280;3246;42.664;23.308;2024-03-22T11:36:25;120715.88;;;-142.62;32.78
6427;BME280;3246;42.664;23.308;2024-03-22T11:38:52;120715.88;;;-142.62;32.51
6427;BME280;3246;42.664;23.308;2024-03-22T11:41:29;120715.88;;;-142.62;32.38
6427;BME280;3246;42.664;23.308;2024-03-22T11:43:57;120715.88;;;-142.62;32.25
6427;BME280;3246;42.664;23.308;2024-03-22T11:46:24;120715.88;;;-142.62;32.05
6427;BME280;3246;42.664;23.308;2024-03-22T11:48:52;120715.88;;;-142.62;32.59
6427;BME280;3246;42.664;23.308;2024-03-22T11:51:20;120715.88;;;-142.62;32.47
6427;BME280;3246;42.664;23.308;2024-03-22T11:53:50;120715.88;;;-142.62;32.62
6427;BME280;3246;42.664;23.308;2024-03-22T11:56:18;120715.88;;;-142.62;32.12
6427;BME280;3246;42.664;23.308;2024-03-22T11:58:46;120715.88;;;-142.62;32.11
6427;BME280;3246;42.664;23.308;2024-03-22T12:01:13;120715.88;;;-142.62;32.07
6427;BME280;3246;42.664;23.308;2024-03-22T12:03:40;120715.88;;;-142.62;32.01
6427;BME280;3246;42.664;23.308;2024-03-22T12:06:09;120715.88;;;-142.62;31.98
6427;BME280;3246;42.664;23.308;2024-03-22T12:08:37;120715.88;;;-142.62;31.85
6427;BME280;3246;42.664;23.308;2024-03-22T12:11:04;120715.88;;;-142.62;30.95
6427;BME280;3246;42.664;23.308;2024-03-22T12:13:30;120715.88;;;-142.62;31.30
6427;BME280;3246;42.664;23.308;2024-03-22T12:15:56;120715.88;;;-142.62;31.96
6427;BME280;3246;42.664;23.308;2024-03-22T12:18:23;120715.88;;;-142.62;31.56
6427;BME280;3246;42.664;23.308;2024-03-22T12:20:49;120715.88;;;-142.62;30.98
6427;BME280;3246;42.664;23.308;2024-03-22T12:23:16;120715.88;;;-142.62;30.92
6427;BME280;3246;42.664;23.308;2024-03-22T12:25:43;120715.88;;;-142.62;30.73
6427;BME280;3246;42.664;23.308;2024-03-22T12:28:10;120715.88;;;-142.62;30.96
6427;BME280;3246;42.664;23.308;2024-03-22T12:30:35;120715.88;;;-142.62;30.41
6427;BME280;3246;42.664;23.308;2024-03-22T12:33:02;120715.88;;;-142.62;29.88
6427;BME280;3246;42.664;23.308;2024-03-22T12:35:28;120715.88;;;-142.62;30.09
6427;BME280;3246;42.664;23.308;2024-03-22T12:37:58;120715.88;;;-142.62;29.61